Time;durP1;ratioP1;P1;durP2;ratioP2;P2;SDS_P1;SDS_P2;PMS_P1;PMS_P2;Temp;Humidity;BMP_temperature;BMP_pressure;BME280_temperature;BME280_humidity;BME280_pressure;Samples;Min_cycle;Max_cycle;Signal;HPM_P1;HPM_P2
2023/09/22 00:01:03;;;;;;;6.57;1.67;;;;;;;;;;4975417;28;20729;-78
2023/09/22 00:03:32;;;;;;;7.23;1.60;;;;;;;;;;4975423;28;20198;-79
2023/09/22 00:06:02;;;;;;;7.73;1.27;;;;;;;;;;4975522;28;20203;-79
2023/09/22 00:08:29;;;;;;;7.23;1.40;;;;;;;;;;4975385;28;20205;-78
2023/09/22 00:10:57;;;;;;;3.60;1.10;;;;;;;;;;4975470;28;20213;-79
2023/09/22 00:13:24;;;;;;;5.07;1.17;;;;;;;;;;4975032;28;20199;-79
2023/09/22 00:15:52;;;;;;;4.60;1.23;;;;;;;;;;4974942;28;20253;-79
2023/09/22 00:18:20;;;;;;;3.87;1.23;;;;;;;;;;4975088;28;20240;-79
2023/09/22 00:20:47;;;;;;;8.70;1.00;;;;;;;;;;4975720;28;20242;-79
2023/09/22 00:23:15;;;;;;;7.90;1.20;;;;;;;;;;4975114;28;20590;-77
2023/09/22 00:25:42;;;;;;;6.87;1.40;;;;;;;;;;4974817;28;20288;-77
2023/09/22 00:28:09;;;;;;;5.23;1.50;;;;;;;;;;4974584;28;20198;-79
2023/09/22 00:30:37;;;;;;;4.97;1.17;;;;;;;;;;4974398;28;20689;-79
2023/09/22 00:33:06;;;;;;;6.67;1.40;;;;;;;;;;4975005;28;20241;-79
2023/09/22 00:35:33;;;;;;;9.37;1.50;;;;;;;;;;4974383;28;20231;-79
2023/09/22 00:38:01;;;;;;;3.93;1.00;;;;;;;;;;4975016;28;20249;-79
2023/09/22 00:40:28;;;;;;;3.40;1.20;;;;;;;;;;4974449;28;20241;-80
2023/09/22 00:43:11;;;;;;;4.23;1.13;;;;;;;;;;4974515;28;20249;-79
2023/09/22 00:45:42;;;;;;;5.93;1.20;;;;;;;;;;4972888;28;20681;-79
2023/09/22 00:48:11;;;;;;;4.50;1.20;;;;;;;;;;4974484;28;20327;-79
2023/09/22 00:50:39;;;;;;;2.97;1.10;;;;;;;;;;4974986;28;20202;-79
2023/09/22 00:53:06;;;;;;;4.73;1.20;;;;;;;;;;4974626;28;20226;-79
2023/09/22 00:55:34;;;;;;;5.20;1.10;;;;;;;;;;4973986;28;20261;-79
2023/09/22 00:58:01;;;;;;;5.33;1.20;;;;;;;;;;4974235;28;20285;-79
2023/09/22 01:00:28;;;;;;;1.87;0.90;;;;;;;;;;4974542;28;20254;-79
2023/09/22 01:02:56;;;;;;;6.63;1.40;;;;;;;;;;4973019;28;20254;-79
2023/09/22 01:05:25;;;;;;;5.20;1.33;;;;;;;;;;4974099;28;20673;-80
2023/09/22 01:07:52;;;;;;;5.27;1.30;;;;;;;;;;4974057;28;20229;-79
2023/09/22 01:10:20;;;;;;;6.33;1.50;;;;;;;;;;4974019;28;20556;-79
2023/09/22 01:12:49;;;;;;;4.40;1.10;;;;;;;;;;4973649;28;20306;-79
2023/09/22 01:15:16;;;;;;;2.90;1.27;;;;;;;;;;4974290;28;20206;-79
2023/09/22 01:17:44;;;;;;;4.80;1.40;;;;;;;;;;4979661;28;20245;-79
2023/09/22 01:20:11;;;;;;;5.63;1.50;;;;;;;;;;4993180;28;20656;-79
2023/09/22 01:22:39;;;;;;;5.23;1.50;;;;;;;;;;4993393;28;20257;-79
2023/09/22 01:25:07;;;;;;;7.73;1.80;;;;;;;;;;4993280;28;20198;-79
2023/09/22 01:27:34;;;;;;;10.07;1.73;;;;;;;;;;4992648;28;20194;-79
2023/09/22 01:30:04;;;;;;;5.37;1.90;;;;;;;;;;4993273;28;20679;-79
2023/09/22 01:32:32;;;;;;;3.37;1.40;;;;;;;;;;4993248;28;20201;-79
2023/09/22 01:34:59;;;;;;;8.67;1.70;;;;;;;;;;4992911;28;21011;-79
2023/09/22 01:37:28;;;;;;;6.43;1.60;;;;;;;;;;4993018;28;20202;-80
2023/09/22 01:39:57;;;;;;;4.70;1.77;;;;;;;;;;4992885;28;20292;-79
2023/09/22 01:42:25;;;;;;;6.63;1.67;;;;;;;;;;4992699;28;20228;-79
2023/09/22 01:44:52;;;;;;;6.97;1.70;;;;;;;;;;4992971;28;20237;-79
2023/09/22 01:47:19;;;;;;;6.70;2.23;;;;;;;;;;4992620;28;20747;-79
2023/09/22 01:49:46;;;;;;;4.97;1.77;;;;;;;;;;4992910;28;20283;-79
2023/09/22 01:52:14;;;;;;;5.73;1.80;;;;;;;;;;4992940;28;20230;-79
2023/09/22 01:54:41;;;;;;;6.07;1.97;;;;;;;;;;4992520;28;20221;-79
2023/09/22 01:57:09;;;;;;;5.40;1.80;;;;;;;;;;4984618;28;20657;-79
2023/09/22 01:59:37;;;;;;;5.70;1.50;;;;;;;;;;4975206;28;21076;-79
2023/09/22 02:02:04;;;;;;;5.40;1.57;;;;;;;;;;4973375;28;20678;-79
2023/09/22 02:04:31;;;;;;;4.33;1.70;;;;;;;;;;4973163;28;20223;-80
2023/09/22 02:06:59;;;;;;;7.20;1.90;;;;;;;;;;4972886;28;20864;-79
2023/09/22 02:09:26;;;;;;;6.27;1.83;;;;;;;;;;4973064;28;20700;-79
2023/09/22 02:11:53;;;;;;;4.83;2.40;;;;;;;;;;4972947;28;20199;-80
2023/09/22 02:14:22;;;;;;;4.37;2.10;;;;;;;;;;4972227;28;20629;-80
2023/09/22 02:16:49;;;;;;;6.60;2.60;;;;;;;;;;4972719;28;20666;-80
2023/09/22 02:19:17;;;;;;;7.20;2.83;;;;;;;;;;4990702;28;20210;-80
2023/09/22 02:21:45;;;;;;;6.90;2.60;;;;;;;;;;4992059;28;20720;-80
2023/09/22 02:24:12;;;;;;;7.13;2.83;;;;;;;;;;4991993;28;20669;-79
2023/09/22 02:26:40;;;;;;;8.43;2.87;;;;;;;;;;4991750;28;20300;-79
2023/09/22 02:29:07;;;;;;;4.10;1.80;;;;;;;;;;4992142;28;20723;-80
2023/09/22 02:31:35;;;;;;;4.20;1.33;;;;;;;;;;4992075;28;20202;-80
2023/09/22 02:34:03;;;;;;;2.97;1.30;;;;;;;;;;4992088;28;20248;-80
2023/09/22 02:36:30;;;;;;;4.53;1.10;;;;;;;;;;4992441;28;20197;-80
2023/09/22 02:38:57;;;;;;;1.13;0.80;;;;;;;;;;4991689;28;20264;-79
2023/09/22 02:41:24;;;;;;;3.50;1.13;;;;;;;;;;4991572;28;20225;-80
2023/09/22 02:43:52;;;;;;;4.80;0.90;;;;;;;;;;4992187;28;20204;-79
2023/09/22 02:46:19;;;;;;;5.43;0.90;;;;;;;;;;4991615;28;20202;-80
2023/09/22 02:48:49;;;;;;;8.37;1.00;;;;;;;;;;4991945;28;20197;-80
2023/09/22 02:51:16;;;;;;;2.83;1.27;;;;;;;;;;4992027;28;20208;-80
2023/09/22 02:53:45;;;;;;;3.10;0.80;;;;;;;;;;4992000;28;20268;-80
2023/09/22 02:56:12;;;;;;;1.77;0.93;;;;;;;;;;4991442;28;20314;-80
2023/09/22 02:58:39;;;;;;;5.20;1.20;;;;;;;;;;4991882;28;20252;-80
2023/09/22 03:01:08;;;;;;;4.23;1.93;;;;;;;;;;4991566;28;20740;-80
2023/09/22 03:03:36;;;;;;;7.63;3.17;;;;;;;;;;4991506;28;20301;-80
2023/09/22 03:06:05;;;;;;;6.33;2.93;;;;;;;;;;4991782;28;20673;-79
2023/09/22 03:08:32;;;;;;;9.37;2.87;;;;;;;;;;4991665;28;20229;-82
2023/09/22 03:10:59;;;;;;;3.73;1.73;;;;;;;;;;4991551;28;20202;-80
2023/09/22 03:13:26;;;;;;;3.13;1.30;;;;;;;;;;4992008;28;20193;-80
2023/09/22 03:15:54;;;;;;;2.40;1.07;;;;;;;;;;4991826;28;20289;-79
2023/09/22 03:18:21;;;;;;;3.63;1.20;;;;;;;;;;4991584;28;20198;-80
2023/09/22 03:20:48;;;;;;;2.97;1.10;;;;;;;;;;4991227;28;20221;-80
2023/09/22 03:23:17;;;;;;;2.87;1.20;;;;;;;;;;4991555;28;20284;-80
2023/09/22 03:25:45;;;;;;;2.73;1.33;;;;;;;;;;4991852;28;20236;-79
2023/09/22 03:28:13;;;;;;;2.60;1.60;;;;;;;;;;4995578;28;20625;-79
2023/09/22 03:30:40;;;;;;;2.67;1.20;;;;;;;;;;4995515;28;20304;-78
2023/09/22 03:33:08;;;;;;;3.63;1.30;;;;;;;;;;4995600;28;20232;-80
2023/09/22 03:35:38;;;;;;;4.33;1.20;;;;;;;;;;4995580;28;20581;-78
2023/09/22 03:38:09;;;;;;;3.40;1.97;;;;;;;;;;4994882;28;20194;-79
2023/09/22 03:40:41;;;;;;;3.90;1.80;;;;;;;;;;4994948;28;20249;-79
2023/09/22 03:43:08;;;;;;;9.23;3.80;;;;;;;;;;4995574;28;20209;-79
2023/09/22 03:45:36;;;;;;;12.40;4.47;;;;;;;;;;4994958;28;20289;-79
2023/09/22 03:48:03;;;;;;;5.07;2.80;;;;;;;;;;4995094;28;20573;-79
2023/09/22 03:50:30;;;;;;;3.83;1.60;;;;;;;;;;4995057;28;20202;-79
2023/09/22 03:52:59;;;;;;;3.87;1.10;;;;;;;;;;4994831;28;20202;-79
2023/09/22 03:55:26;;;;;;;4.53;1.97;;;;;;;;;;4994605;28;20690;-79
2023/09/22 03:57:55;;;;;;;3.87;1.80;;;;;;;;;;4994877;28;20202;-80
2023/09/22 04:00:28;;;;;;;4.20;1.40;;;;;;;;;;4994681;28;20236;-79
2023/09/22 04:02:55;;;;;;;2.80;1.40;;;;;;;;;;4994860;28;20731;-79
2023/09/22 04:05:22;;;;;;;2.67;1.20;;;;;;;;;;4994572;28;20197;-79
2023/09/22 04:07:51;;;;;;;3.00;1.23;;;;;;;;;;4994453;28;20227;-79
2023/09/22 04:10:19;;;;;;;2.37;1.00;;;;;;;;;;4994891;28;20213;-80
2023/09/22 04:12:46;;;;;;;3.60;1.00;;;;;;;;;;4994806;28;20202;-79
2023/09/22 04:15:15;;;;;;;2.03;0.97;;;;;;;;;;4995089;28;20665;-80
2023/09/22 04:17:42;;;;;;;4.47;1.03;;;;;;;;;;4994277;28;20245;-80
2023/09/22 04:20:11;;;;;;;1.30;0.90;;;;;;;;;;4994573;28;20229;-80
2023/09/22 04:22:39;;;;;;;3.73;0.93;;;;;;;;;;4993950;28;20261;-79
2023/09/22 04:25:10;;;;;;;3.83;1.00;;;;;;;;;;4994699;28;20268;-79
2023/09/22 04:27:43;;;;;;;2.80;0.80;;;;;;;;;;4994000;28;20672;-79
2023/09/22 04:30:13;;;;;;;3.23;1.20;;;;;;;;;;4994314;28;20197;-80
2023/09/22 04:32:41;;;;;;;1.80;0.97;;;;;;;;;;4994534;28;20233;-79
2023/09/22 04:35:09;;;;;;;1.30;0.80;;;;;;;;;;4994195;28;20201;-81
2023/09/22 04:37:36;;;;;;;4.27;1.00;;;;;;;;;;4993650;28;20576;-80
2023/09/22 04:40:09;;;;;;;2.30;0.73;;;;;;;;;;4994075;28;20198;-80
2023/09/22 04:42:36;;;;;;;2.63;1.20;;;;;;;;;;4994475;28;20224;-80
2023/09/22 04:45:04;;;;;;;1.43;0.50;;;;;;;;;;4993915;28;20248;-80
2023/09/22 04:47:31;;;;;;;16.23;1.00;;;;;;;;;;4994310;28;20198;-80
2023/09/22 04:50:01;;;;;;;3.03;0.83;;;;;;;;;;4993737;28;20233;-80
2023/09/22 04:52:28;;;;;;;3.07;0.90;;;;;;;;;;4993654;28;20241;-80
2023/09/22 04:54:55;;;;;;;3.07;0.80;;;;;;;;;;4994265;28;20194;-80
2023/09/22 04:57:24;;;;;;;3.57;0.77;;;;;;;;;;4993888;28;20198;-80
2023/09/22 04:59:53;;;;;;;2.13;1.07;;;;;;;;;;4994136;28;20260;-79
2023/09/22 05:02:20;;;;;;;2.90;0.90;;;;;;;;;;4993631;28;20213;-80
2023/09/22 05:04:48;;;;;;;2.80;1.17;;;;;;;;;;4993475;28;20198;-80
2023/09/22 05:07:16;;;;;;;1.93;0.90;;;;;;;;;;4993772;28;20229;-80
2023/09/22 05:09:44;;;;;;;4.50;0.90;;;;;;;;;;4993752;28;20256;-80
2023/09/22 05:12:11;;;;;;;1.97;0.90;;;;;;;;;;4993730;28;20732;-80
2023/09/22 05:14:38;;;;;;;1.83;0.80;;;;;;;;;;4993534;28;20288;-79
2023/09/22 05:17:06;;;;;;;2.03;0.93;;;;;;;;;;4993519;28;20633;-79
2023/09/22 05:19:33;;;;;;;2.53;0.80;;;;;;;;;;4993189;28;20194;-79
2023/09/22 05:22:00;;;;;;;3.87;0.90;;;;;;;;;;4993295;28;20249;-80
2023/09/22 05:24:29;;;;;;;3.30;0.80;;;;;;;;;;4993161;28;20658;-80
2023/09/22 05:26:56;;;;;;;1.80;0.80;;;;;;;;;;4993159;28;20297;-80
2023/09/22 05:29:24;;;;;;;1.23;0.90;;;;;;;;;;4989841;28;20206;-81
2023/09/22 05:31:51;;;;;;;1.27;0.80;;;;;;;;;;4993585;28;20209;-81
2023/09/22 05:34:19;;;;;;;2.33;0.90;;;;;;;;;;4980634;28;20202;-78
2023/09/22 05:36:46;;;;;;;1.77;0.80;;;;;;;;;;4973416;28;20257;-78
2023/09/22 05:39:14;;;;;;;1.80;0.83;;;;;;;;;;4973409;28;20203;-79
2023/09/22 05:41:44;;;;;;;2.63;0.93;;;;;;;;;;4978183;28;20236;-79
2023/09/22 05:44:11;;;;;;;2.73;1.17;;;;;;;;;;4991091;28;20233;-78
2023/09/22 05:46:38;;;;;;;1.60;1.10;;;;;;;;;;4992443;28;20623;-77
2023/09/22 05:49:06;;;;;;;3.43;1.20;;;;;;;;;;4991633;28;20209;-79
2023/09/22 05:51:35;;;;;;;2.77;1.30;;;;;;;;;;4992512;28;20221;-77
2023/09/22 05:54:03;;;;;;;5.07;1.47;;;;;;;;;;4992687;28;20211;-79
2023/09/22 05:56:31;;;;;;;2.90;1.40;;;;;;;;;;4993056;28;20264;-79
2023/09/22 05:58:59;;;;;;;6.10;1.30;;;;;;;;;;4992842;28;20223;-77
2023/09/22 06:01:27;;;;;;;4.93;1.47;;;;;;;;;;4992381;28;20222;-79
2023/09/22 06:03:55;;;;;;;3.13;1.50;;;;;;;;;;4992130;28;20205;-79
2023/09/22 06:06:22;;;;;;;4.60;1.87;;;;;;;;;;4992581;28;20245;-79
2023/09/22 06:08:50;;;;;;;3.43;1.53;;;;;;;;;;4992655;28;20260;-77
2023/09/22 06:11:18;;;;;;;4.17;1.60;;;;;;;;;;4992795;28;20202;-79
2023/09/22 06:13:45;;;;;;;3.37;1.50;;;;;;;;;;4992572;28;20241;-79
2023/09/22 06:16:14;;;;;;;5.53;1.73;;;;;;;;;;4992378;28;20260;-78
2023/09/22 06:18:41;;;;;;;4.90;1.43;;;;;;;;;;4992131;28;20235;-78
2023/09/22 06:21:10;;;;;;;4.20;1.80;;;;;;;;;;4992447;28;20755;-79
2023/09/22 06:23:38;;;;;;;4.10;1.53;;;;;;;;;;4991768;28;20232;-78
2023/09/22 06:26:08;;;;;;;4.30;1.80;;;;;;;;;;4992198;28;20252;-78
2023/09/22 06:28:35;;;;;;;3.67;2.00;;;;;;;;;;4992667;28;20199;-79
2023/09/22 06:31:03;;;;;;;5.50;2.13;;;;;;;;;;4992313;28;20206;-79
2023/09/22 06:33:32;;;;;;;4.30;2.30;;;;;;;;;;4991729;28;20553;-78
2023/09/22 06:36:00;;;;;;;3.70;1.80;;;;;;;;;;4991951;28;20233;-79
2023/09/22 06:38:27;;;;;;;5.50;1.80;;;;;;;;;;4974734;28;20284;-79
2023/09/22 06:40:56;;;;;;;3.37;1.80;;;;;;;;;;4992236;28;20613;-79
2023/09/22 06:43:24;;;;;;;5.60;1.67;;;;;;;;;;4991990;28;20296;-79
2023/09/22 06:45:52;;;;;;;3.13;1.50;;;;;;;;;;4992203;28;20743;-79
2023/09/22 06:48:22;;;;;;;4.87;2.00;;;;;;;;;;4991780;28;20293;-80
2023/09/22 06:50:51;;;;;;;2.23;1.67;;;;;;;;;;4991871;28;20212;-78
2023/09/22 06:53:19;;;;;;;2.23;1.57;;;;;;;;;;4992462;28;20742;-79
2023/09/22 06:55:46;;;;;;;4.13;1.50;;;;;;;;;;4991922;28;20202;-77
2023/09/22 06:58:13;;;;;;;4.00;1.70;;;;;;;;;;4992270;28;20201;-79
2023/09/22 07:00:40;;;;;;;2.83;1.50;;;;;;;;;;4993261;28;20923;-79
2023/09/22 07:03:08;;;;;;;3.57;1.60;;;;;;;;;;4996282;28;20244;-79
2023/09/22 07:05:35;;;;;;;2.93;1.50;;;;;;;;;;4996270;28;20202;-79
2023/09/22 07:08:04;;;;;;;3.20;1.53;;;;;;;;;;4996124;28;20197;-79
2023/09/22 07:10:34;;;;;;;3.87;1.40;;;;;;;;;;4995756;28;20226;-79
2023/09/22 07:13:02;;;;;;;1.42;1.10;;;;;;;;;;4995703;28;20205;-78
2023/09/22 07:15:29;;;;;;;2.17;1.10;;;;;;;;;;4995927;28;20197;-79
2023/09/22 07:17:56;;;;;;;3.03;1.10;;;;;;;;;;4995730;28;20664;-79
2023/09/22 07:20:23;;;;;;;2.25;1.10;;;;;;;;;;4995376;28;20264;-79
2023/09/22 07:22:51;;;;;;;2.00;1.08;;;;;;;;;;4995647;28;20241;-79
2023/09/22 07:25:22;;;;;;;2.58;1.38;;;;;;;;;;4995709;28;20326;-79
2023/09/22 07:27:49;;;;;;;2.33;1.00;;;;;;;;;;4995649;28;20256;-79
2023/09/22 07:30:18;;;;;;;2.30;1.10;;;;;;;;;;4995263;28;20289;-79
2023/09/22 07:32:45;;;;;;;1.08;0.80;;;;;;;;;;4995488;28;20723;-79
2023/09/22 07:35:12;;;;;;;2.65;0.95;;;;;;;;;;4995569;28;20202;-79
2023/09/22 07:37:40;;;;;;;1.50;0.80;;;;;;;;;;4995470;28;20569;-79
2023/09/22 07:40:09;;;;;;;4.65;1.08;;;;;;;;;;4995246;28;20234;-79
2023/09/22 07:42:41;;;;;;;3.28;0.90;;;;;;;;;;4994990;28;20236;-79
2023/09/22 07:45:09;;;;;;;1.85;0.80;;;;;;;;;;4995028;28;20202;-79
2023/09/22 07:47:37;;;;;;;2.55;0.80;;;;;;;;;;4995447;28;20229;-78
2023/09/22 07:50:04;;;;;;;2.60;0.80;;;;;;;;;;4994982;28;20198;-79
2023/09/22 07:52:32;;;;;;;1.50;0.80;;;;;;;;;;4995154;28;20640;-79
2023/09/22 07:54:59;;;;;;;2.50;0.85;;;;;;;;;;4995025;28;20204;-79
2023/09/22 07:57:30;;;;;;;2.30;0.75;;;;;;;;;;4994891;28;20226;-79
2023/09/22 07:59:58;;;;;;;2.92;0.90;;;;;;;;;;4995015;28;20202;-79
2023/09/22 08:02:26;;;;;;;2.40;0.80;;;;;;;;;;4994587;28;20284;-80
2023/09/22 08:04:53;;;;;;;2.88;0.90;;;;;;;;;;4994676;28;20206;-79
2023/09/22 08:07:20;;;;;;;2.42;1.00;;;;;;;;;;4995173;28;20261;-79
2023/09/22 08:09:47;;;;;;;1.92;0.75;;;;;;;;;;4994932;28;20617;-79
2023/09/22 08:12:15;;;;;;;3.33;1.00;;;;;;;;;;4994099;28;20225;-79
2023/09/22 08:14:45;;;;;;;2.40;0.70;;;;;;;;;;4994320;28;20642;-78
2023/09/22 08:17:15;;;;;;;2.30;1.20;;;;;;;;;;4994555;28;20233;-79
2023/09/22 08:19:42;;;;;;;2.72;0.90;;;;;;;;;;4994604;28;20202;-79
2023/09/22 08:22:10;;;;;;;1.38;0.73;;;;;;;;;;4994390;28;20237;-81
2023/09/22 08:24:38;;;;;;;2.33;0.80;;;;;;;;;;4994381;28;20252;-79
2023/09/22 08:27:05;;;;;;;4.00;0.93;;;;;;;;;;4994402;28;20198;-79
2023/09/22 08:29:33;;;;;;;1.83;0.80;;;;;;;;;;4994213;28;20205;-78
2023/09/22 08:32:00;;;;;;;2.03;0.75;;;;;;;;;;4994653;28;20206;-79
2023/09/22 08:34:29;;;;;;;1.85;0.90;;;;;;;;;;4994745;28;20233;-80
2023/09/22 08:36:56;;;;;;;1.67;0.77;;;;;;;;;;4994351;28;20289;-79
2023/09/22 08:39:23;;;;;;;1.77;0.80;;;;;;;;;;4994311;28;20197;-79
2023/09/22 08:41:51;;;;;;;2.83;1.08;;;;;;;;;;4994135;28;20324;-79
2023/09/22 08:44:18;;;;;;;4.68;0.95;;;;;;;;;;4994358;28;20657;-79
2023/09/22 08:46:46;;;;;;;2.53;1.00;;;;;;;;;;4994233;28;20665;-78
2023/09/22 08:49:15;;;;;;;2.65;0.90;;;;;;;;;;4993772;28;20205;-79
2023/09/22 08:51:44;;;;;;;2.55;1.00;;;;;;;;;;4993937;28;20213;-79
2023/09/22 08:54:11;;;;;;;1.88;0.80;;;;;;;;;;4994015;28;20202;-79
2023/09/22 08:56:39;;;;;;;2.50;0.85;;;;;;;;;;4993226;28;20197;-79
2023/09/22 08:59:08;;;;;;;3.58;1.10;;;;;;;;;;4993934;28;20204;-79
2023/09/22 09:01:35;;;;;;;3.08;1.00;;;;;;;;;;4993831;28;20328;-79
2023/09/22 09:04:29;;;;;;;3.13;1.00;;;;;;;;;;4993911;28;20268;-79
2023/09/22 09:06:58;;;;;;;2.55;0.68;;;;;;;;;;4993758;28;20237;-79
2023/09/22 09:09:25;;;;;;;4.07;0.80;;;;;;;;;;4993748;28;20681;-78
2023/09/22 09:11:59;;;;;;;2.17;0.60;;;;;;;;;;4993587;28;20250;-79
2023/09/22 09:14:28;;;;;;;1.52;0.80;;;;;;;;;;4993798;28;20579;-78
2023/09/22 09:16:56;;;;;;;1.88;0.70;;;;;;;;;;4993532;28;20201;-79
2023/09/22 09:19:24;;;;;;;3.25;0.73;;;;;;;;;;4993362;28;20692;-78
2023/09/22 09:22:09;;;;;;;1.50;0.52;;;;;;;;;;4993463;28;20688;-78
2023/09/22 09:24:37;;;;;;;0.80;0.50;;;;;;;;;;4992285;28;20635;-80
2023/09/22 09:27:17;;;;;;;2.90;0.50;;;;;;;;;;4993049;28;20236;-78
2023/09/22 09:29:45;;;;;;;2.38;0.73;;;;;;;;;;4993781;28;20197;-79
2023/09/22 09:32:13;;;;;;;3.10;0.70;;;;;;;;;;4993439;28;20246;-79
2023/09/22 09:34:41;;;;;;;2.10;0.50;;;;;;;;;;4993233;28;20780;-79
2023/09/22 09:37:13;;;;;;;2.80;1.20;;;;;;;;;;4993131;28;20194;-80
2023/09/22 09:39:47;;;;;;;2.15;0.60;;;;;;;;;;4992938;28;20201;-79
2023/09/22 09:42:16;;;;;;;2.35;0.63;;;;;;;;;;4992587;28;20228;-79
2023/09/22 09:44:47;;;;;;;1.83;0.73;;;;;;;;;;4992927;28;20202;-80
2023/09/22 09:47:18;;;;;;;0.70;0.40;;;;;;;;;;4993046;28;20617;-80
2023/09/22 09:49:46;;;;;;;1.92;0.70;;;;;;;;;;4993166;28;20339;-80
2023/09/22 09:52:16;;;;;;;2.13;0.57;;;;;;;;;;4992906;28;20260;-80
2023/09/22 09:54:46;;;;;;;1.73;0.73;;;;;;;;;;4992282;28;20252;-79
2023/09/22 09:57:13;;;;;;;2.45;0.50;;;;;;;;;;4992872;28;20626;-79
2023/09/22 09:59:42;;;;;;;2.90;0.80;;;;;;;;;;4990124;28;20202;-79
2023/09/22 10:02:12;;;;;;;2.55;0.88;;;;;;;;;;4627248;28;10000551;-79
2023/09/22 10:04:40;;;;;;;1.98;0.68;;;;;;;;;;4969865;28;20265;-80
2023/09/22 10:07:08;;;;;;;2.50;0.70;;;;;;;;;;4969775;28;20212;-79
2023/09/22 10:09:36;;;;;;;1.63;0.70;;;;;;;;;;4969459;28;20206;-79
2023/09/22 10:12:06;;;;;;;1.75;0.55;;;;;;;;;;4969346;28;20269;-79
2023/09/22 10:14:46;;;;;;;1.35;0.50;;;;;;;;;;4970007;28;20194;-78
2023/09/22 10:17:21;;;;;;;3.47;0.50;;;;;;;;;;4971322;28;20799;-79
2023/09/22 10:19:49;;;;;;;2.90;0.68;;;;;;;;;;4989154;28;20204;-79
2023/09/22 10:22:16;;;;;;;3.58;1.48;;;;;;;;;;4988605;28;20745;-79
2023/09/22 10:24:46;;;;;;;1.45;0.60;;;;;;;;;;4988751;28;20202;-79
2023/09/22 10:27:14;;;;;;;2.60;1.08;;;;;;;;;;4988970;28;20287;-79
2023/09/22 10:29:42;;;;;;;2.92;0.93;;;;;;;;;;4988789;28;20646;-78
2023/09/22 10:32:27;;;;;;;3.60;0.82;;;;;;;;;;4989382;28;20237;-79
2023/09/22 10:34:55;;;;;;;3.75;0.80;;;;;;;;;;4988464;28;20217;-79
2023/09/22 10:37:22;;;;;;;3.40;1.00;;;;;;;;;;4989116;28;20210;-78
2023/09/22 10:39:52;;;;;;;1.63;0.70;;;;;;;;;;4988605;28;20272;-80
2023/09/22 10:42:20;;;;;;;4.07;1.10;;;;;;;;;;4988612;28;20748;-78
2023/09/22 10:44:58;;;;;;;3.25;0.73;;;;;;;;;;4988884;28;20321;-79
2023/09/22 10:47:27;;;;;;;3.95;0.90;;;;;;;;;;4988095;28;20247;-78
2023/09/22 10:49:55;;;;;;;2.95;0.90;;;;;;;;;;4988568;28;20690;-78
2023/09/22 10:52:22;;;;;;;2.80;0.70;;;;;;;;;;4988299;28;20198;-78
2023/09/22 10:54:49;;;;;;;3.60;1.00;;;;;;;;;;4988556;28;20256;-78
2023/09/22 10:57:29;;;;;;;2.67;1.33;;;;;;;;;;4988802;28;20263;-79
2023/09/22 10:59:57;;;;;;;3.22;0.85;;;;;;;;;;4987204;28;20194;-78
2023/09/22 11:02:24;;;;;;;2.58;0.73;;;;;;;;;;4969195;28;20238;-77
2023/09/22 11:04:52;;;;;;;3.20;0.80;;;;;;;;;;4969238;28;20199;-77
2023/09/22 11:07:37;;;;;;;3.55;0.90;;;;;;;;;;4969075;28;20210;-78
2023/09/22 11:10:05;;;;;;;4.95;1.00;;;;;;;;;;4969276;28;20198;-78
2023/09/22 11:12:33;;;;;;;2.42;0.80;;;;;;;;;;4968970;28;20207;-79
2023/09/22 11:15:02;;;;;;;2.47;0.82;;;;;;;;;;4968828;28;20686;-78
2023/09/22 11:17:38;;;;;;;3.45;0.90;;;;;;;;;;4973163;28;20205;-78
2023/09/22 11:20:12;;;;;;;2.35;1.17;;;;;;;;;;4988229;28;20590;-78
2023/09/22 11:22:40;;;;;;;3.70;0.85;;;;;;;;;;4991119;28;20248;-78
2023/09/22 11:25:07;;;;;;;3.10;0.98;;;;;;;;;;4991754;28;20197;-78
2023/09/22 11:27:43;;;;;;;4.63;1.05;;;;;;;;;;4991586;28;20205;-78
2023/09/22 11:30:16;;;;;;;3.95;0.70;;;;;;;;;;4991797;28;20201;-79
2023/09/22 11:32:44;;;;;;;1.95;0.85;;;;;;;;;;4991389;28;20206;-80
2023/09/22 11:35:11;;;;;;;3.95;0.80;;;;;;;;;;4991458;28;20759;-79
2023/09/22 11:37:39;;;;;;;2.22;1.00;;;;;;;;;;4991233;28;20252;-79
2023/09/22 11:40:16;;;;;;;1.33;0.75;;;;;;;;;;4991817;28;20205;-79
2023/09/22 11:42:49;;;;;;;3.83;1.00;;;;;;;;;;4991316;28;20901;-78
2023/09/22 11:45:23;;;;;;;5.15;1.90;;;;;;;;;;4991620;28;20198;-77
2023/09/22 11:47:50;;;;;;;3.95;1.40;;;;;;;;;;4993557;28;20248;-78
2023/09/22 11:50:25;;;;;;;4.82;2.22;;;;;;;;;;4995106;28;20202;-79
2023/09/22 11:52:52;;;;;;;3.28;1.00;;;;;;;;;;4994986;28;20660;-78
2023/09/22 11:55:19;;;;;;;3.13;0.90;;;;;;;;;;4995257;28;20202;-79
2023/09/22 11:57:48;;;;;;;2.95;1.00;;;;;;;;;;4995012;28;20264;-79
2023/09/22 12:00:17;;;;;;;2.60;1.00;;;;;;;;;;4994871;28;20260;-78
2023/09/22 12:02:45;;;;;;;2.08;0.90;;;;;;;;;;4995335;28;20759;-79
2023/09/22 12:05:13;;;;;;;3.90;1.10;;;;;;;;;;4994607;28;20198;-79
2023/09/22 12:07:40;;;;;;;3.40;1.00;;;;;;;;;;4994582;28;20682;-79
2023/09/22 12:10:08;;;;;;;2.42;0.90;;;;;;;;;;4994692;28;20202;-80
2023/09/22 12:12:35;;;;;;;6.15;1.02;;;;;;;;;;4995037;28;20210;-79
2023/09/22 12:15:04;;;;;;;2.88;1.20;;;;;;;;;;4994759;28;20268;-79
2023/09/22 12:17:31;;;;;;;2.83;1.00;;;;;;;;;;4994396;28;20260;-79
2023/09/22 12:19:59;;;;;;;1.48;0.80;;;;;;;;;;4994027;28;20205;-80
2023/09/22 12:22:26;;;;;;;1.85;0.80;;;;;;;;;;4994674;28;20274;-80
2023/09/22 12:24:53;;;;;;;1.90;0.70;;;;;;;;;;4994426;28;20205;-80
2023/09/22 12:27:20;;;;;;;2.20;0.60;;;;;;;;;;4994681;28;20248;-79
2023/09/22 12:29:47;;;;;;;2.05;0.70;;;;;;;;;;4994286;28;20673;-79
2023/09/22 12:32:16;;;;;;;1.40;0.70;;;;;;;;;;4994199;28;20222;-79
2023/09/22 12:34:43;;;;;;;2.67;0.77;;;;;;;;;;4994404;28;20194;-79
2023/09/22 12:37:11;;;;;;;2.25;0.80;;;;;;;;;;4994158;28;20734;-80
2023/09/22 12:39:38;;;;;;;2.60;0.80;;;;;;;;;;4994126;28;20202;-78
2023/09/22 12:42:06;;;;;;;1.98;1.00;;;;;;;;;;4994331;28;20220;-78
2023/09/22 12:44:33;;;;;;;2.38;1.02;;;;;;;;;;4994045;28;20260;-79
2023/09/22 12:47:01;;;;;;;2.45;1.15;;;;;;;;;;4994476;28;20202;-79
2023/09/22 12:49:29;;;;;;;2.10;1.13;;;;;;;;;;4993820;28;20201;-79
2023/09/22 12:51:56;;;;;;;6.65;1.35;;;;;;;;;;4993920;28;20252;-79
2023/09/22 12:54:24;;;;;;;6.55;1.45;;;;;;;;;;4994073;28;20256;-79
2023/09/22 12:56:51;;;;;;;2.33;1.00;;;;;;;;;;4993875;28;20280;-80
2023/09/22 12:59:18;;;;;;;2.95;0.88;;;;;;;;;;4993771;28;20650;-79
2023/09/22 13:01:45;;;;;;;2.63;0.80;;;;;;;;;;4994320;28;20197;-80
2023/09/22 13:04:12;;;;;;;1.65;0.60;;;;;;;;;;4993505;28;20283;-79
2023/09/22 13:06:42;;;;;;;3.33;1.15;;;;;;;;;;4993620;28;20234;-79
2023/09/22 13:09:09;;;;;;;2.05;0.93;;;;;;;;;;4993646;28;20288;-79
2023/09/22 13:11:36;;;;;;;4.03;1.00;;;;;;;;;;4993767;28;20229;-79
2023/09/22 13:14:04;;;;;;;2.92;0.90;;;;;;;;;;4994282;28;20233;-79
2023/09/22 13:16:31;;;;;;;2.22;1.20;;;;;;;;;;4993557;28;20198;-80
2023/09/22 13:18:58;;;;;;;3.53;1.25;;;;;;;;;;4993173;28;20206;-80
2023/09/22 13:21:29;;;;;;;4.00;1.00;;;;;;;;;;4781399;28;10001285;-80
2023/09/22 13:23:58;;;;;;;3.45;0.77;;;;;;;;;;4970645;28;20462;-80
2023/09/22 13:26:25;;;;;;;3.47;0.80;;;;;;;;;;4970636;28;20309;-80
2023/09/22 13:28:56;;;;;;;3.05;0.90;;;;;;;;;;4970463;28;20207;-78
2023/09/22 13:31:24;;;;;;;3.25;0.93;;;;;;;;;;4970366;28;20206;-79
2023/09/22 13:33:51;;;;;;;2.00;0.70;;;;;;;;;;4970229;28;20202;-79
2023/09/22 13:36:19;;;;;;;2.63;0.80;;;;;;;;;;4969856;28;20229;-79
2023/09/22 13:38:46;;;;;;;3.13;1.00;;;;;;;;;;4970688;28;20207;-79
2023/09/22 13:41:16;;;;;;;1.52;0.50;;;;;;;;;;4970909;28;20236;-79
2023/09/22 13:43:43;;;;;;;2.40;0.57;;;;;;;;;;4970475;28;20234;-79
2023/09/22 13:46:11;;;;;;;3.08;0.77;;;;;;;;;;4969616;28;20261;-78
2023/09/22 13:48:39;;;;;;;0.93;0.50;;;;;;;;;;4970055;28;20199;-78
2023/09/22 13:51:07;;;;;;;1.42;0.63;;;;;;;;;;4970037;28;20206;-79
2023/09/22 13:53:34;;;;;;;1.80;0.60;;;;;;;;;;4970157;28;20229;-79
2023/09/22 13:56:02;;;;;;;3.00;0.85;;;;;;;;;;4969758;28;20245;-79
2023/09/22 13:58:30;;;;;;;2.10;0.90;;;;;;;;;;4969540;28;20206;-79
2023/09/22 14:00:58;;;;;;;3.65;0.80;;;;;;;;;;4970225;28;20289;-79
2023/09/22 14:03:25;;;;;;;2.50;0.70;;;;;;;;;;4969679;28;20226;-79
2023/09/22 14:05:52;;;;;;;1.63;0.88;;;;;;;;;;4970112;28;20202;-79
2023/09/22 14:08:21;;;;;;;1.58;0.60;;;;;;;;;;4969845;28;20591;-79
2023/09/22 14:10:48;;;;;;;3.70;0.93;;;;;;;;;;4968656;28;20210;-80
2023/09/22 14:13:16;;;;;;;2.00;0.80;;;;;;;;;;4969973;28;20213;-79
2023/09/22 14:15:44;;;;;;;1.95;0.70;;;;;;;;;;4969270;28;20828;-79
2023/09/22 14:18:12;;;;;;;4.50;1.08;;;;;;;;;;4978537;28;20285;-80
2023/09/22 14:20:40;;;;;;;3.58;1.23;;;;;;;;;;4989134;28;20240;-80
2023/09/22 14:23:08;;;;;;;1.60;0.93;;;;;;;;;;5003335;28;20719;-79
2023/09/22 14:25:37;;;;;;;2.85;1.13;;;;;;;;;;5008710;28;20259;-78
2023/09/22 14:28:04;;;;;;;2.97;1.20;;;;;;;;;;5008581;28;20295;-80
2023/09/22 14:30:32;;;;;;;2.22;0.70;;;;;;;;;;5008222;28;20216;-79
2023/09/22 14:33:00;;;;;;;3.55;1.00;;;;;;;;;;5008274;28;20207;-79
2023/09/22 14:35:27;;;;;;;1.80;0.70;;;;;;;;;;5007887;28;20201;-79
2023/09/22 14:37:55;;;;;;;3.22;1.08;;;;;;;;;;5008447;28;20747;-79
2023/09/22 14:40:23;;;;;;;2.70;0.90;;;;;;;;;;5008392;28;20203;-79
2023/09/22 14:42:52;;;;;;;1.98;0.70;;;;;;;;;;5008481;28;20216;-80
2023/09/22 14:45:19;;;;;;;3.28;0.93;;;;;;;;;;5007963;28;20240;-79
2023/09/22 14:47:47;;;;;;;3.47;1.02;;;;;;;;;;5008649;28;20201;-80
2023/09/22 14:50:18;;;;;;;4.03;0.80;;;;;;;;;;5008262;28;20236;-79